Time;durP1;ratioP1;P1;durP2;ratioP2;P2;SDS_P1;SDS_P2;PMS_P1;PMS_P2;Temp;Humidity;BMP_temperature;BMP_pressure;BME280_temperature;BME280_humidity;BME280_pressure;Samples;Min_cycle;Max_cycle;Signal;HPM_P1;HPM_P2
2023/03/26 00:00:25;;;;;;;;;;;;;;;;;;2223647;58;1127;-19
2023/03/26 00:02:55;;;;;;;;;;;;;;;;;;2224216;66;1493;-19
2023/03/26 00:05:26;;;;;;;;;;;;;;;;;;2223461;66;1531;-19
2023/03/26 00:07:59;;;;;;;;;;;;;;;;;;2223296;66;2101;-19
2023/03/26 00:10:29;;;;;;;;;;;;;;;;;;2223326;66;1117;-19
2023/03/26 00:12:59;;;;;;;;;;;;;;;;;;2223367;66;1222;-19
2023/03/26 00:15:30;;;;;;;;;;;;;;;;;;2223530;66;1930;-19
2023/03/26 00:18:00;;;;;;;;;;;;;;;;;;2223592;66;1253;-19
2023/03/26 00:20:33;;;;;;;;;;;;;;;;;;2223341;66;1145;-19
2023/03/26 00:23:03;;;;;;;;;;;;;;;;;;2221121;66;1767;-20
2023/03/26 00:25:37;;;;;;;;;;;;;;;;;;2223227;58;1311;-19
2023/03/26 00:28:07;;;;;;;;;;;;;;;;;;2219381;66;1106;-19
2023/03/26 00:30:40;;;;;;;;;;;;;;;;;;2223373;66;1244;-19
2023/03/26 00:33:10;;;;;;;;;;;;;;;;;;2223343;66;1165;-19
2023/03/26 00:35:42;;;;;;;;;;;;;;;;;;2223149;66;1927;-19
2023/03/26 00:38:15;;;;;;;;;;;;;;;;;;2220245;66;1698;-20
2023/03/26 00:40:46;;;;;;;;;;;;;;;;;;2224221;66;1479;-19
2023/03/26 00:43:18;;;;;;;;;;;;;;;;;;2222151;53;3681;-21
2023/03/26 00:45:48;;;;;;;;;;;;;;;;;;2218250;66;1226;-21
2023/03/26 00:48:19;;;;;;;;;;;;;;;;;;2215079;66;1679;-21
2023/03/26 00:50:49;;;;;;;;;;;;;;;;;;2203463;66;1202;-21
2023/03/26 00:53:20;;;;;;;;;;;;;;;;;;2202841;66;1740;-21
2023/03/26 00:55:51;;;;;;;;;;;;;;;;;;2201814;66;1934;-21
2023/03/26 00:58:21;;;;;;;;;;;;;;;;;;2202027;67;1502;-21
2023/03/26 01:00:59;;;;;;;;;;;;;;;;;;2201511;66;1269;-21
2023/03/26 01:03:32;;;;;;;;;;;;;;;;;;2202155;67;1301;-21
2023/03/26 01:06:06;;;;;;;;;;;;;;;;;;2201701;59;1369;-21
2023/03/26 01:08:39;;;;;;;;;;;;;;;;;;2202147;66;1879;-21
2023/03/26 01:11:13;;;;;;;;;;;;;;;;;;2202881;66;1118;-21
2023/03/26 01:13:51;;;;;;;;;;;;;;;;;;2202708;66;1923;-21
2023/03/26 01:16:21;;;;;;;;;;;;;;;;;;2202275;66;1926;-21
2023/03/26 01:18:52;;;;;;;;;;;;;;;;;;2201642;66;1266;-21
2023/03/26 01:21:28;;;;;;;;;;;;;;;;;;2201912;66;1089;-21
2023/03/26 01:23:59;;;;;;;;;;;;;;;;;;2201241;66;1337;-19
2023/03/26 01:26:47;;;;;;;;;;;;;;;;;;2201585;66;1659;-19
2023/03/26 01:29:30;;;;;;;;;;;;;;;;;;2201883;66;1923;-19
2023/03/26 01:32:19;;;;;;;;;;;;;;;;;;2200664;66;1244;-19
2023/03/26 01:35:01;;;;;;;;;;;;;;;;;;2201767;67;1945;-21
2023/03/26 01:37:40;;;;;;;;;;;;;;;;;;2201334;66;1186;-21
2023/03/26 01:40:22;;;;;;;;;;;;;;;;;;2202466;67;1320;-21
2023/03/26 01:42:59;;;;;;;;;;;;;;;;;;2202254;59;1660;-21
2023/03/26 01:45:32;;;;;;;;;;;;;;;;;;2213605;66;1368;-21
2023/03/26 01:48:03;;;;;;;;;;;;;;;;;;2202017;66;2159;-21
2023/03/26 01:50:34;;;;;;;;;;;;;;;;;;2202191;66;1080;-21
2023/03/26 01:53:04;;;;;;;;;;;;;;;;;;2202305;66;2209;-21
2023/03/26 01:55:52;;;;;;;;;;;;;;;;;;2202099;66;1925;-21
2023/03/26 01:58:25;;;;;;;;;;;;;;;;;;2201607;66;1820;-21
2023/03/26 02:01:15;;;;;;;;;;;;;;;;;;2202523;59;1271;-21
2023/03/26 02:03:49;;;;;;;;;;;;;;;;;;2201945;66;1319;-21
2023/03/26 02:06:29;;;;;;;;;;;;;;;;;;2201764;66;1659;-21
2023/03/26 02:09:02;;;;;;;;;;;;;;;;;;2211127;66;1359;-21
2023/03/26 02:11:34;;;;;;;;;;;;;;;;;;2211345;66;1687;-21
2023/03/26 02:14:05;;;;;;;;;;;;;;;;;;2202768;66;2028;-21
2023/03/26 02:16:36;;;;;;;;;;;;;;;;;;2201425;66;2009;-21
2023/03/26 02:19:14;;;;;;;;;;;;;;;;;;2213554;66;1173;-21
2023/03/26 02:21:45;;;;;;;;;;;;;;;;;;2202751;66;1768;-21
2023/03/26 02:24:17;;;;;;;;;;;;;;;;;;2201457;66;1282;-21
2023/03/26 02:26:47;;;;;;;;;;;;;;;;;;2201470;66;1932;-20
2023/03/26 02:29:19;;;;;;;;;;;;;;;;;;2201566;66;1328;-19
2023/03/26 02:31:49;;;;;;;;;;;;;;;;;;2201977;66;1834;-19
2023/03/26 02:34:19;;;;;;;;;;;;;;;;;;2202260;66;1290;-19
2023/03/26 02:36:50;;;;;;;;;;;;;;;;;;2202018;66;2004;-19
2023/03/26 02:39:20;;;;;;;;;;;;;;;;;;2201560;66;1162;-19
2023/03/26 02:41:50;;;;;;;;;;;;;;;;;;2201670;59;1315;-20
2023/03/26 02:44:20;;;;;;;;;;;;;;;;;;2202001;66;1372;-19
2023/03/26 02:46:50;;;;;;;;;;;;;;;;;;2203077;66;1480;-19
2023/03/26 02:49:21;;;;;;;;;;;;;;;;;;2202127;66;1093;-19
2023/03/26 02:51:55;;;;;;;;;;;;;;;;;;2201807;66;1738;-20
2023/03/26 02:54:25;;;;;;;;;;;;;;;;;;2201616;66;1302;-19
2023/03/26 02:56:59;;;;;;;;;;;;;;;;;;2209175;66;1953;-19
2023/03/26 02:59:29;;;;;;;;;;;;;;;;;;2202000;66;1148;-19
2023/03/26 03:01:59;;;;;;;;;;;;;;;;;;2201592;66;1716;-19
2023/03/26 03:04:29;;;;;;;;;;;;;;;;;;2203831;66;1210;-19
2023/03/26 03:06:59;;;;;;;;;;;;;;;;;;2213065;66;1547;-19
2023/03/26 03:09:30;;;;;;;;;;;;;;;;;;2212595;66;1343;-19
2023/03/26 03:12:00;;;;;;;;;;;;;;;;;;2201135;67;1617;-19
2023/03/26 03:14:30;;;;;;;;;;;;;;;;;;2201215;66;1227;-19
2023/03/26 03:17:00;;;;;;;;;;;;;;;;;;2200802;59;1952;-19
2023/03/26 03:19:33;;;;;;;;;;;;;;;;;;2201503;66;1115;-19
2023/03/26 03:22:04;;;;;;;;;;;;;;;;;;2202192;66;2024;-19
2023/03/26 03:24:37;;;;;;;;;;;;;;;;;;2213463;66;1456;-20
2023/03/26 03:27:07;;;;;;;;;;;;;;;;;;2201743;66;1333;-21
2023/03/26 03:29:38;;;;;;;;;;;;;;;;;;2202493;66;1315;-21
2023/03/26 03:32:08;;;;;;;;;;;;;;;;;;2201160;66;1173;-19
2023/03/26 03:34:38;;;;;;;;;;;;;;;;;;2202377;67;1946;-19
2023/03/26 03:37:08;;;;;;;;;;;;;;;;;;2201741;66;1271;-19
2023/03/26 03:39:39;;;;;;;;;;;;;;;;;;2203616;66;1660;-19
2023/03/26 03:42:12;;;;;;;;;;;;;;;;;;2201091;59;1993;-20
2023/03/26 03:44:43;;;;;;;;;;;;;;;;;;2213913;66;1766;-19
2023/03/26 03:47:14;;;;;;;;;;;;;;;;;;2203424;66;1248;-19
2023/03/26 03:49:44;;;;;;;;;;;;;;;;;;2203066;66;1360;-19
2023/03/26 03:52:15;;;;;;;;;;;;;;;;;;2202751;66;1773;-21
2023/03/26 03:54:45;;;;;;;;;;;;;;;;;;2214730;66;1961;-21
2023/03/26 03:57:17;;;;;;;;;;;;;;;;;;2201626;66;1259;-21
2023/03/26 03:59:48;;;;;;;;;;;;;;;;;;2201442;66;1235;-21
2023/03/26 04:02:25;;;;;;;;;;;;;;;;;;2203383;66;1198;-21
2023/03/26 04:04:58;;;;;;;;;;;;;;;;;;2201850;66;1653;-21
2023/03/26 04:07:31;;;;;;;;;;;;;;;;;;2202094;66;1100;-21
2023/03/26 04:10:02;;;;;;;;;;;;;;;;;;2213775;66;1462;-21
2023/03/26 04:12:33;;;;;;;;;;;;;;;;;;2201840;66;1163;-21
2023/03/26 04:15:06;;;;;;;;;;;;;;;;;;2202186;66;2002;-20
2023/03/26 04:17:41;;;;;;;;;;;;;;;;;;2213238;66;1695;-19
2023/03/26 04:20:14;;;;;;;;;;;;;;;;;;2202398;66;1124;-19
2023/03/26 04:22:44;;;;;;;;;;;;;;;;;;2214103;66;1205;-19
2023/03/26 04:25:15;;;;;;;;;;;;;;;;;;2202180;66;1351;-20
2023/03/26 04:27:46;;;;;;;;;;;;;;;;;;2214578;66;1337;-20
2023/03/26 04:30:19;;;;;;;;;;;;;;;;;;2202438;66;1285;-20
2023/03/26 04:32:50;;;;;;;;;;;;;;;;;;2214277;66;1342;-20
2023/03/26 04:35:20;;;;;;;;;;;;;;;;;;2214217;66;1936;-20
2023/03/26 04:37:51;;;;;;;;;;;;;;;;;;2202243;66;1187;-20
2023/03/26 04:40:22;;;;;;;;;;;;;;;;;;2201641;66;1585;-20
2023/03/26 04:42:53;;;;;;;;;;;;;;;;;;2202408;59;1335;-20
2023/03/26 04:45:29;;;;;;;;;;;;;;;;;;2201211;66;1124;-20
2023/03/26 04:47:59;;;;;;;;;;;;;;;;;;2213497;66;1741;-20
2023/03/26 04:50:29;;;;;;;;;;;;;;;;;;2204059;66;1111;-20
2023/03/26 04:52:59;;;;;;;;;;;;;;;;;;2214657;66;1417;-20
2023/03/26 04:55:29;;;;;;;;;;;;;;;;;;2201998;66;1997;-20
2023/03/26 04:58:03;;;;;;;;;;;;;;;;;;2213890;66;1722;-20
2023/03/26 05:00:33;;;;;;;;;;;;;;;;;;2203252;66;1401;-20
2023/03/26 05:03:03;;;;;;;;;;;;;;;;;;2214426;66;1535;-20
2023/03/26 05:05:33;;;;;;;;;;;;;;;;;;2202116;66;1121;-20
2023/03/26 05:08:04;;;;;;;;;;;;;;;;;;2202335;66;1112;-19
2023/03/26 05:10:34;;;;;;;;;;;;;;;;;;2203597;66;1128;-19
2023/03/26 05:13:05;;;;;;;;;;;;;;;;;;2214752;66;1383;-19
2023/03/26 05:15:35;;;;;;;;;;;;;;;;;;2202418;66;1983;-19
2023/03/26 05:18:07;;;;;;;;;;;;;;;;;;2202143;66;1176;-19
2023/03/26 05:20:37;;;;;;;;;;;;;;;;;;2214566;66;1767;-21
2023/03/26 05:23:07;;;;;;;;;;;;;;;;;;2201923;66;1210;-21
2023/03/26 05:25:38;;;;;;;;;;;;;;;;;;2201478;66;1338;-21
2023/03/26 05:28:09;;;;;;;;;;;;;;;;;;2201171;66;1203;-21
2023/03/26 05:30:42;;;;;;;;;;;;;;;;;;2201583;66;1297;-21
2023/03/26 05:33:12;;;;;;;;;;;;;;;;;;2201937;66;1312;-21
2023/03/26 05:35:42;;;;;;;;;;;;;;;;;;2213685;66;2007;-21
2023/03/26 05:38:12;;;;;;;;;;;;;;;;;;2202141;66;1518;-21
2023/03/26 05:40:43;;;;;;;;;;;;;;;;;;2202024;66;1473;-21
2023/03/26 05:43:13;;;;;;;;;;;;;;;;;;2202886;59;1213;-21
2023/03/26 05:45:46;;;;;;;;;;;;;;;;;;2202073;66;1113;-21
2023/03/26 05:48:16;;;;;;;;;;;;;;;;;;2202182;66;1173;-21
2023/03/26 05:50:50;;;;;;;;;;;;;;;;;;2202065;66;1099;-21
2023/03/26 05:53:21;;;;;;;;;;;;;;;;;;2201905;66;1334;-21
2023/03/26 05:55:56;;;;;;;;;;;;;;;;;;2201635;66;1938;-21
2023/03/26 05:58:28;;;;;;;;;;;;;;;;;;2202390;66;1077;-21
2023/03/26 06:01:04;;;;;;;;;;;;;;;;;;2202566;66;1222;-21
2023/03/26 06:03:35;;;;;;;;;;;;;;;;;;2213825;59;1719;-21
2023/03/26 06:06:07;;;;;;;;;;;;;;;;;;2202272;66;1115;-21
2023/03/26 06:08:38;;;;;;;;;;;;;;;;;;2201816;66;1139;-21
2023/03/26 06:11:11;;;;;;;;;;;;;;;;;;2203159;66;1690;-21
2023/03/26 06:13:42;;;;;;;;;;;;;;;;;;2204480;66;1348;-21
2023/03/26 06:16:13;;;;;;;;;;;;;;;;;;2202428;66;1949;-21
2023/03/26 06:18:43;;;;;;;;;;;;;;;;;;2201836;66;1340;-21
2023/03/26 06:21:13;;;;;;;;;;;;;;;;;;2203167;66;1396;-21
2023/03/26 06:23:44;;;;;;;;;;;;;;;;;;2202868;66;1271;-21
2023/03/26 06:26:14;;;;;;;;;;;;;;;;;;2213757;59;1074;-21
2023/03/26 06:28:44;;;;;;;;;;;;;;;;;;2201731;66;1044;-21
2023/03/26 06:31:16;;;;;;;;;;;;;;;;;;2201933;66;1377;-21
2023/03/26 06:33:47;;;;;;;;;;;;;;;;;;2202639;66;1438;-21
2023/03/26 06:36:17;;;;;;;;;;;;;;;;;;2202128;66;1928;-21
2023/03/26 06:38:47;;;;;;;;;;;;;;;;;;2202497;66;1222;-21
2023/03/26 06:41:18;;;;;;;;;;;;;;;;;;2202520;66;1295;-21
2023/03/26 06:43:48;;;;;;;;;;;;;;;;;;2202009;59;1143;-21
2023/03/26 06:46:20;;;;;;;;;;;;;;;;;;2203331;66;1664;-21
2023/03/26 06:48:50;;;;;;;;;;;;;;;;;;2201179;66;1312;-21
2023/03/26 06:51:21;;;;;;;;;;;;;;;;;;2213464;66;2540;-21
2023/03/26 06:53:51;;;;;;;;;;;;;;;;;;2201828;66;1495;-21
2023/03/26 06:56:21;;;;;;;;;;;;;;;;;;2202081;66;1934;-21
2023/03/26 06:58:51;;;;;;;;;;;;;;;;;;2201413;66;1246;-21
2023/03/26 07:01:22;;;;;;;;;;;;;;;;;;2202234;67;1450;-21
2023/03/26 07:03:55;;;;;;;;;;;;;;;;;;2201872;66;1227;-21
2023/03/26 07:06:25;;;;;;;;;;;;;;;;;;2213259;58;1512;-21
2023/03/26 07:08:56;;;;;;;;;;;;;;;;;;2202088;66;1877;-21
2023/03/26 07:11:26;;;;;;;;;;;;;;;;;;2212862;66;1987;-21
2023/03/26 07:13:58;;;;;;;;;;;;;;;;;;2202588;66;1173;-21
2023/03/26 07:16:28;;;;;;;;;;;;;;;;;;2201510;66;1941;-22
2023/03/26 07:18:59;;;;;;;;;;;;;;;;;;2201723;66;1339;-22
2023/03/26 07:21:29;;;;;;;;;;;;;;;;;;2201269;66;1216;-22
2023/03/26 07:24:00;;;;;;;;;;;;;;;;;;2214239;66;1276;-22
2023/03/26 07:26:38;;;;;;;;;;;;;;;;;;2202009;66;1103;-22
2023/03/26 07:29:14;;;;;;;;;;;;;;;;;;2201996;66;1188;-22
2023/03/26 07:32:01;;;;;;;;;;;;;;;;;;2201736;66;1675;-22
2023/03/26 07:34:45;;;;;;;;;;;;;;;;;;2202184;66;1114;-22
2023/03/26 07:37:21;;;;;;;;;;;;;;;;;;2202419;66;1203;-23
2023/03/26 07:39:56;;;;;;;;;;;;;;;;;;2213565;66;1028;-23
2023/03/26 07:42:51;;;;;;;;;;;;;;;;;;2201691;59;1235;-23
2023/03/26 07:45:26;;;;;;;;;;;;;;;;;;2202154;66;1143;-23
2023/03/26 07:47:56;;;;;;;;;;;;;;;;;;2214766;66;1626;-23
2023/03/26 07:50:26;;;;;;;;;;;;;;;;;;2202098;66;1782;-23
2023/03/26 07:52:57;;;;;;;;;;;;;;;;;;2202491;66;1406;-23
2023/03/26 07:55:27;;;;;;;;;;;;;;;;;;2202040;66;2015;-23
2023/03/26 07:58:15;;;;;;;;;;;;;;;;;;2201777;66;1136;-23
2023/03/26 08:00:55;;;;;;;;;;;;;;;;;;2201971;66;1663;-23
2023/03/26 08:03:35;;;;;;;;;;;;;;;;;;2201882;66;1356;-23
2023/03/26 08:06:14;;;;;;;;;;;;;;;;;;2201434;66;1898;-24
2023/03/26 08:08:52;;;;;;;;;;;;;;;;;;2213947;66;1636;-23
2023/03/26 08:11:33;;;;;;;;;;;;;;;;;;2202015;66;1498;-23
2023/03/26 08:14:29;;;;;;;;;;;;;;;;;;2202780;66;1356;-23
2023/03/26 08:17:05;;;;;;;;;;;;;;;;;;2202106;66;2000;-23
2023/03/26 08:19:43;;;;;;;;;;;;;;;;;;2201748;66;1127;-23
2023/03/26 08:22:28;;;;;;;;;;;;;;;;;;2202726;66;1930;-23
2023/03/26 08:25:08;;;;;;;;;;;;;;;;;;2203000;66;1331;-23
2023/03/26 08:27:38;;;;;;;;;;;;;;;;;;2202746;66;1106;-23
2023/03/26 08:30:18;;;;;;;;;;;;;;;;;;2213676;66;1253;-23
2023/03/26 08:32:51;;;;;;;;;;;;;;;;;;2202273;66;1226;-23
2023/03/26 08:35:22;;;;;;;;;;;;;;;;;;2202490;66;1944;-23
2023/03/26 08:37:53;;;;;;;;;;;;;;;;;;2213772;58;2255;-23
2023/03/26 08:40:42;;;;;;;;;;;;;;;;;;2218369;66;1159;-23
2023/03/26 08:43:31;;;;;;;;;;;;;;;;;;2222362;66;1798;-23
2023/03/26 08:46:04;;;;;;;;;;;;;;;;;;2204675;66;1344;-23
2023/03/26 08:48:58;;;;;;;;;;;;;;;;;;2204126;66;1219;-23
2023/03/26 08:51:31;;;;;;;;;;;;;;;;;;2203103;66;1467;-23
2023/03/26 08:54:24;;;;;;;;;;;;;;;;;;2201745;66;1775;-23
2023/03/26 08:57:13;;;;;;;;;;;;;;;;;;2201831;66;1940;-23
2023/03/26 09:00:04;;;;;;;;;;;;;;;;;;2201408;66;1859;-23
2023/03/26 09:02:43;;;;;;;;;;;;;;;;;;2203021;66;1280;-23
2023/03/26 09:05:23;;;;;;;;;;;;;;;;;;2202363;67;1591;-23
2023/03/26 09:08:07;;;;;;;;;;;;;;;;;;2211930;66;1874;-22
2023/03/26 09:10:45;;;;;;;;;;;;;;;;;;2201994;66;1472;-22
2023/03/26 09:13:15;;;;;;;;;;;;;;;;;;2202142;66;1402;-22
2023/03/26 09:15:51;;;;;;;;;;;;;;;;;;2201968;66;1957;-22
2023/03/26 09:18:22;;;;;;;;;;;;;;;;;;2202499;66;1062;-22
2023/03/26 09:21:04;;;;;;;;;;;;;;;;;;2202458;66;1153;-22
2023/03/26 09:23:41;;;;;;;;;;;;;;;;;;2201814;66;1216;-22
2023/03/26 09:26:16;;;;;;;;;;;;;;;;;;2201227;66;1335;-22
2023/03/26 09:29:07;;;;;;;;;;;;;;;;;;2201136;66;2015;-22
2023/03/26 09:31:56;;;;;;;;;;;;;;;;;;2212280;66;1319;-22
2023/03/26 09:34:31;;;;;;;;;;;;;;;;;;2203626;66;1818;-22
2023/03/26 09:37:05;;;;;;;;;;;;;;;;;;2213429;66;1939;-22
2023/03/26 09:39:41;;;;;;;;;;;;;;;;;;2202535;66;1191;-22
2023/03/26 09:42:11;;;;;;;;;;;;;;;;;;2201583;59;1227;-22
2023/03/26 09:44:58;;;;;;;;;;;;;;;;;;2203225;66;1570;-22
2023/03/26 09:47:33;;;;;;;;;;;;;;;;;;2202336;66;1362;-22
2023/03/26 09:50:09;;;;;;;;;;;;;;;;;;2201862;66;1384;-22
2023/03/26 09:52:58;;;;;;;;;;;;;;;;;;2201773;66;1533;-22
2023/03/26 09:55:38;;;;;;;;;;;;;;;;;;2200965;59;1944;-22
2023/03/26 09:58:12;;;;;;;;;;;;;;;;;;2202234;66;1949;-22
2023/03/26 10:00:54;;;;;;;;;;;;;;;;;;2202254;66;1437;-23
2023/03/26 10:03:24;;;;;;;;;;;;;;;;;;2201963;66;1215;-23
2023/03/26 10:06:21;;;;;;;;;;;;;;;;;;2201744;66;1329;-23
2023/03/26 10:09:26;;;;;;;;;;;;;;;;;;2212406;66;1659;-23
2023/03/26 10:12:15;;;;;;;;;;;;;;;;;;2202767;66;1285;-23
2023/03/26 10:15:01;;;;;;;;;;;;;;;;;;2201934;66;1849;-22
2023/03/26 10:17:35;;;;;;;;;;;;;;;;;;2202163;66;1424;-22
2023/03/26 10:20:11;;;;;;;;;;;;;;;;;;2200545;66;1822;-22
2023/03/26 10:22:42;;;;;;;;;;;;;;;;;;2213535;66;1344;-22
2023/03/26 10:25:16;;;;;;;;;;;;;;;;;;2201645;67;1481;-22
2023/03/26 10:27:46;;;;;;;;;;;;;;;;;;2213616;66;1709;-22
2023/03/26 10:30:19;;;;;;;;;;;;;;;;;;2202496;66;1348;-22
2023/03/26 10:33:04;;;;;;;;;;;;;;;;;;2201802;66;1220;-22
2023/03/26 10:35:37;;;;;;;;;;;;;;;;;;2201976;66;1999;-22
2023/03/26 10:38:26;;;;;;;;;;;;;;;;;;2201320;67;1592;-22
2023/03/26 10:41:15;;;;;;;;;;;;;;;;;;2202288;66;1111;-22
2023/03/26 10:43:57;;;;;;;;;;;;;;;;;;2201467;59;1641;-22
2023/03/26 10:46:40;;;;;;;;;;;;;;;;;;2203296;66;1081;-22
2023/03/26 10:49:30;;;;;;;;;;;;;;;;;;2201684;66;1107;-22
2023/03/26 10:52:03;;;;;;;;;;;;;;;;;;2202617;66;1389;-22
2023/03/26 10:54:52;;;;;;;;;;;;;;;;;;2201799;66;1118;-22
2023/03/26 10:57:34;;;;;;;;;;;;;;;;;;2201356;66;1948;-22
2023/03/26 11:00:12;;;;;;;;;;;;;;;;;;2202406;66;1330;-22
2023/03/26 11:02:45;;;;;;;;;;;;;;;;;;2201910;66;1190;-22
2023/03/26 11:05:19;;;;;;;;;;;;;;;;;;2214461;66;1616;-22
2023/03/26 11:08:09;;;;;;;;;;;;;;;;;;2203310;66;1943;-22
2023/03/26 11:10:59;;;;;;;;;;;;;;;;;;2213488;66;1128;-22
2023/03/26 11:13:45;;;;;;;;;;;;;;;;;;2202073;59;2208;-22
2023/03/26 11:16:38;;;;;;;;;;;;;;;;;;2214392;66;1945;-22
2023/03/26 11:19:23;;;;;;;;;;;;;;;;;;2205270;66;1827;-20
2023/03/26 11:22:07;;;;;;;;;;;;;;;;;;2204475;66;1890;-21
2023/03/26 11:24:52;;;;;;;;;;;;;;;;;;2205395;66;1638;-20
2023/03/26 11:27:45;;;;;;;;;;;;;;;;;;2204910;66;2402;-20
2023/03/26 11:30:15;;;;;;;;;;;;;;;;;;2204055;66;1943;-20
2023/03/26 11:32:49;;;;;;;;;;;;;;;;;;2205064;66;1716;-20
2023/03/26 11:35:31;;;;;;;;;;;;;;;;;;2203652;66;1985;-20
2023/03/26 11:38:06;;;;;;;;;;;;;;;;;;2205372;66;1709;-20
2023/03/26 11:40:41;;;;;;;;;;;;;;;;;;2204889;66;2134;-20
2023/03/26 11:43:13;;;;;;;;;;;;;;;;;;2205288;59;1645;-21
2023/03/26 11:45:45;;;;;;;;;;;;;;;;;;2215656;59;1288;-22
2023/03/26 11:48:30;;;;;;;;;;;;;;;;;;2215926;66;1465;-22
2023/03/26 11:51:04;;;;;;;;;;;;;;;;;;2204205;66;1395;-22
2023/03/26 11:53:37;;;;;;;;;;;;;;;;;;2204258;59;2147;-22
2023/03/26 11:56:14;;;;;;;;;;;;;;;;;;2203052;66;2562;-22
2023/03/26 11:58:48;;;;;;;;;;;;;;;;;;2203728;59;2046;-22
2023/03/26 12:01:28;;;;;;;;;;;;;;;;;;2202784;66;2271;-22
2023/03/26 12:04:12;;;;;;;;;;;;;;;;;;2205843;59;2023;-22
2023/03/26 12:07:03;;;;;;;;;;;;;;;;;;2205136;66;2079;-22
2023/03/26 12:09:34;;;;;;;;;;;;;;;;;;2203727;66;1938;-22
2023/03/26 12:12:13;;;;;;;;;;;;;;;;;;2205543;66;1556;-22
2023/03/26 12:14:46;;;;;;;;;;;;;;;;;;2204637;66;1942;-22
2023/03/26 12:17:43;;;;;;;;;;;;;;;;;;2207715;66;2014;-22
2023/03/26 12:20:22;;;;;;;;;;;;;;;;;;2204725;66;1773;-22
2023/03/26 12:22:59;;;;;;;;;;;;;;;;;;2206111;59;1696;-22
2023/03/26 12:25:30;;;;;;;;;;;;;;;;;;2217084;66;1600;-22
2023/03/26 12:28:04;;;;;;;;;;;;;;;;;;2215356;66;1790;-22
2023/03/26 12:30:36;;;;;;;;;;;;;;;;;;2215007;66;2378;-22
2023/03/26 12:33:16;;;;;;;;;;;;;;;;;;2204159;59;2106;-22
2023/03/26 12:35:48;;;;;;;;;;;;;;;;;;2214660;66;1937;-22
2023/03/26 12:38:23;;;;;;;;;;;;;;;;;;2212479;66;1320;-22
2023/03/26 12:41:04;;;;;;;;;;;;;;;;;;2203484;66;1710;-22
2023/03/26 12:43:45;;;;;;;;;;;;;;;;;;2214670;58;1806;-22
2023/03/26 12:46:22;;;;;;;;;;;;;;;;;;2205396;66;2102;-22
2023/03/26 12:48:58;;;;;;;;;;;;;;;;;;2205795;66;1937;-22
2023/03/26 12:51:50;;;;;;;;;;;;;;;;;;2205090;66;2004;-22
2023/03/26 12:54:33;;;;;;;;;;;;;;;;;;2221866;53;3706;-17
2023/03/26 12:57:11;;;;;;;;;;;;;;;;;;2224738;66;1934;-17
2023/03/26 13:00:00;;;;;;;;;;;;;;;;;;2225957;66;1154;-17
2023/03/26 13:02:34;;;;;;;;;;;;;;;;;;2222658;66;1887;-18
2023/03/26 13:05:13;;;;;;;;;;;;;;;;;;2223034;60;1357;-17
2023/03/26 13:07:46;;;;;;;;;;;;;;;;;;2225879;66;1255;-17
2023/03/26 13:10:31;;;;;;;;;;;;;;;;;;2225729;66;1985;-17
2023/03/26 13:13:20;;;;;;;;;;;;;;;;;;2222248;58;1309;-17
2023/03/26 13:15:59;;;;;;;;;;;;;;;;;;2225805;58;1964;-17
2023/03/26 13:18:40;;;;;;;;;;;;;;;;;;2222747;66;1712;-17
2023/03/26 13:21:29;;;;;;;;;;;;;;;;;;2225815;66;1679;-17
2023/03/26 13:24:34;;;;;;;;;;;;;;;;;;2225570;66;1456;-17
2023/03/26 13:27:13;;;;;;;;;;;;;;;;;;2207990;67;2608;-17
2023/03/26 13:29:58;;;;;;;;;;;;;;;;;;2223684;66;1590;-18
2023/03/26 13:32:42;;;;;;;;;;;;;;;;;;2225810;62;1710;-17
2023/03/26 13:35:32;;;;;;;;;;;;;;;;;;2225499;66;1924;-17
2023/03/26 13:38:05;;;;;;;;;;;;;;;;;;2226565;66;1162;-17
2023/03/26 13:40:39;;;;;;;;;;;;;;;;;;2225855;66;1641;-17
2023/03/26 13:43:22;;;;;;;;;;;;;;;;;;2226736;66;1349;-17
2023/03/26 13:45:55;;;;;;;;;;;;;;;;;;2225620;66;1184;-17
2023/03/26 13:48:28;;;;;;;;;;;;;;;;;;2225348;66;1320;-17
2023/03/26 13:51:11;;;;;;;;;;;;;;;;;;2225348;66;1255;-17
2023/03/26 13:53:46;;;;;;;;;;;;;;;;;;2225881;66;2054;-17
2023/03/26 13:56:22;;;;;;;;;;;;;;;;;;2225538;59;1988;-17
2023/03/26 13:59:07;;;;;;;;;;;;;;;;;;2223257;66;1757;-17
2023/03/26 14:01:46;;;;;;;;;;;;;;;;;;2226300;66;1788;-17
2023/03/26 14:04:31;;;;;;;;;;;;;;;;;;2222435;66;1243;-17
2023/03/26 14:07:19;;;;;;;;;;;;;;;;;;2225829;66;1142;-17
2023/03/26 14:10:00;;;;;;;;;;;;;;;;;;2225271;66;1981;-17
2023/03/26 14:12:50;;;;;;;;;;;;;;;;;;2226285;66;1284;-17
2023/03/26 14:15:27;;;;;;;;;;;;;;;;;;2225885;66;1935;-17
2023/03/26 14:18:02;;;;;;;;;;;;;;;;;;2226434;66;1475;-17
2023/03/26 14:20:47;;;;;;;;;;;;;;;;;;2221615;66;1658;-17
2023/03/26 14:23:28;;;;;;;;;;;;;;;;;;2225038;66;1435;-17
2023/03/26 14:25:59;;;;;;;;;;;;;;;;;;2223564;66;1221;-17
2023/03/26 14:28:45;;;;;;;;;;;;;;;;;;2221507;66;1767;-17
2023/03/26 14:31:34;;;;;;;;;;;;;;;;;;2224937;66;1229;-17
2023/03/26 14:34:06;;;;;;;;;;;;;;;;;;2225569;66;2103;-17
2023/03/26 14:36:36;;;;;;;;;;;;;;;;;;2220306;58;1927;-17
2023/03/26 14:39:24;;;;;;;;;;;;;;;;;;2226009;66;1936;-17
2023/03/26 14:42:00;;;;;;;;;;;;;;;;;;2221061;66;1401;-17
2023/03/26 14:44:50;;;;;;;;;;;;;;;;;;2222667;66;2147;-17
2023/03/26 14:47:22;;;;;;;;;;;;;;;;;;2216325;66;1677;-17
2023/03/26 14:49:53;;;;;;;;;;;;;;;;;;2225033;66;1188;-17
2023/03/26 14:52:30;;;;;;;;;;;;;;;;;;2226066;66;1616;-17
2023/03/26 14:55:02;;;;;;;;;;;;;;;;;;2226192;58;1724;-17
2023/03/26 14:57:47;;;;;;;;;;;;;;;;;;2223061;66;1922;-16
2023/03/26 15:00:21;;;;;;;;;;;;;;;;;;2226291;66;1298;-16
2023/03/26 15:03:06;;;;;;;;;;;;;;;;;;2225017;66;1713;-17
2023/03/26 15:05:43;;;;;;;;;;;;;;;;;;2226683;66;1757;-16
2023/03/26 15:08:16;;;;;;;;;;;;;;;;;;2225406;66;1506;-16
2023/03/26 15:10:48;;;;;;;;;;;;;;;;;;2224922;66;1170;-17
2023/03/26 15:13:30;;;;;;;;;;;;;;;;;;2221411;66;1854;-19
2023/03/26 15:16:15;;;;;;;;;;;;;;;;;;2225027;66;1953;-19
2023/03/26 15:19:21;;;;;;;;;;;;;;;;;;2221522;66;1702;-19
2023/03/26 15:22:03;;;;;;;;;;;;;;;;;;2213569;67;1476;-20
2023/03/26 15:24:40;;;;;;;;;;;;;;;;;;2226164;66;1260;-20
2023/03/26 15:27:29;;;;;;;;;;;;;;;;;;2225986;66;1756;-20
2023/03/26 15:29:59;;;;;;;;;;;;;;;;;;2225696;66;2273;-20
2023/03/26 15:32:51;;;;;;;;;;;;;;;;;;2226627;58;1274;-20
2023/03/26 15:35:40;;;;;;;;;;;;;;;;;;2225671;66;1934;-20
2023/03/26 15:38:47;;;;;;;;;;;;;;;;;;2226151;66;1146;-21
2023/03/26 15:41:33;;;;;;;;;;;;;;;;;;2212159;67;2221;-21
2023/03/26 15:44:23;;;;;;;;;;;;;;;;;;2226042;59;1741;-20
2023/03/26 15:47:14;;;;;;;;;;;;;;;;;;2226425;66;2480;-20
2023/03/26 15:49:51;;;;;;;;;;;;;;;;;;2227039;66;1572;-20
2023/03/26 15:52:40;;;;;;;;;;;;;;;;;;2227302;66;1289;-20
2023/03/26 15:55:29;;;;;;;;;;;;;;;;;;2226424;58;1926;-20
2023/03/26 15:58:17;;;;;;;;;;;;;;;;;;2226355;66;1273;-20
2023/03/26 16:00:54;;;;;;;;;;;;;;;;;;2223312;66;1149;-20
2023/03/26 16:03:33;;;;;;;;;;;;;;;;;;2226861;66;1263;-20
2023/03/26 16:06:06;;;;;;;;;;;;;;;;;;2227278;66;1714;-20
2023/03/26 16:08:45;;;;;;;;;;;;;;;;;;2227539;58;1675;-20
2023/03/26 16:11:36;;;;;;;;;;;;;;;;;;2227771;66;1760;-20
2023/03/26 16:14:16;;;;;;;;;;;;;;;;;;2227441;66;1898;-20
2023/03/26 16:16:54;;;;;;;;;;;;;;;;;;2227159;66;1985;-20
2023/03/26 16:19:30;;;;;;;;;;;;;;;;;;2226737;58;1755;-20
2023/03/26 16:22:02;;;;;;;;;;;;;;;;;;2227385;66;1725;-20
2023/03/26 16:24:34;;;;;;;;;;;;;;;;;;2227041;66;1295;-20
2023/03/26 16:27:14;;;;;;;;;;;;;;;;;;2227593;66;2137;-20
2023/03/26 16:29:59;;;;;;;;;;;;;;;;;;2227164;66;1637;-20
2023/03/26 16:32:29;;;;;;;;;;;;;;;;;;2227136;66;1298;-20
2023/03/26 16:35:01;;;;;;;;;;;;;;;;;;2227311;66;1427;-20
2023/03/26 16:37:35;;;;;;;;;;;;;;;;;;2226539;66;1946;-20
2023/03/26 16:40:19;;;;;;;;;;;;;;;;;;2226785;66;1710;-20
2023/03/26 16:43:08;;;;;;;;;;;;;;;;;;2226300;66;1344;-20
2023/03/26 16:45:45;;;;;;;;;;;;;;;;;;2226070;66;1266;-20
2023/03/26 16:48:22;;;;;;;;;;;;;;;;;;2227172;59;1298;-20
2023/03/26 16:51:11;;;;;;;;;;;;;;;;;;2225930;66;1420;-23
2023/03/26 16:53:47;;;;;;;;;;;;;;;;;;2226411;58;1479;-20
2023/03/26 16:56:44;;;;;;;;;;;;;;;;;;2222902;66;2015;-19
2023/03/26 16:59:30;;;;;;;;;;;;;;;;;;2222888;66;1289;-20
2023/03/26 17:02:25;;;;;;;;;;;;;;;;;;2222148;66;1145;-19
2023/03/26 17:05:16;;;;;;;;;;;;;;;;;;2217862;66;1826;-19
2023/03/26 17:08:02;;;;;;;;;;;;;;;;;;2216267;66;1639;-19
2023/03/26 17:10:35;;;;;;;;;;;;;;;;;;2225331;59;1371;-19
2023/03/26 17:13:26;;;;;;;;;;;;;;;;;;2222011;66;1743;-19
2023/03/26 17:16:18;;;;;;;;;;;;;;;;;;2212835;58;2129;-19
2023/03/26 17:18:59;;;;;;;;;;;;;;;;;;2225562;66;1428;-19
2023/03/26 17:21:35;;;;;;;;;;;;;;;;;;2222244;66;1675;-19
2023/03/26 17:24:13;;;;;;;;;;;;;;;;;;2221866;66;1725;-19
2023/03/26 17:26:49;;;;;;;;;;;;;;;;;;2226984;66;1318;-19
2023/03/26 17:29:27;;;;;;;;;;;;;;;;;;2226091;59;1919;-19
2023/03/26 17:31:58;;;;;;;;;;;;;;;;;;2226509;66;1112;-19
2023/03/26 17:34:31;;;;;;;;;;;;;;;;;;2226139;66;1835;-19
2023/03/26 17:37:22;;;;;;;;;;;;;;;;;;2223549;59;1980;-19
2023/03/26 17:40:08;;;;;;;;;;;;;;;;;;2226065;59;2241;-19
2023/03/26 17:42:58;;;;;;;;;;;;;;;;;;2226497;66;1439;-19
2023/03/26 17:45:31;;;;;;;;;;;;;;;;;;2226656;66;1230;-19
2023/03/26 17:48:08;;;;;;;;;;;;;;;;;;2223076;66;1730;-19
2023/03/26 17:50:51;;;;;;;;;;;;;;;;;;2226486;66;1155;-19
2023/03/26 17:53:33;;;;;;;;;;;;;;;;;;2225577;59;1621;-19
2023/03/26 17:56:05;;;;;;;;;;;;;;;;;;2226123;66;1931;-19
2023/03/26 17:59:01;;;;;;;;;;;;;;;;;;2222159;58;1093;-19
2023/03/26 18:01:37;;;;;;;;;;;;;;;;;;2221250;66;1358;-19
2023/03/26 18:04:13;;;;;;;;;;;;;;;;;;2225785;66;1756;-19
2023/03/26 18:06:55;;;;;;;;;;;;;;;;;;2226214;66;1676;-19
2023/03/26 18:09:40;;;;;;;;;;;;;;;;;;2226105;66;1703;-19